Airfield :
LOGIN :

Register | Disclaimer

   EN    FR    IT 

 










Legend :    VFR   Marginal VFR   IFR   Intensive IFR   Very Intensive IFR
Visi :
Ceiling :
>= 8 km
>= 3000ft
5 to 8 km
1000 to 3000 ft
1500m to 5 km
500 to 1000 ft
800 to 1500m
200 to 500 ft
< 800m
< 200 ft
Symbols :   Thunderstorms  Fog  Heavy snow  Heavy precipitations  Wind > 20 kt
SIGMETs :     Misc.  Thunderstorms  Icing  Turbulence  Mountain Waves  Volcanic Ashes






- Airport Elevation : 1465 ft


LSMP - Payerne

CURRENT METAR :
  • 211620Z AUTO 23006KT 190V250 9999NDV BKN092 09/03 Q1002 RMK

EXPIRED METARs :
  • 211550Z AUTO 21006KT 9999NDV FEW063 BKN091 09/03 Q1002 RMK
  • 211520Z AUTO 21008KT 9999NDV SCT072 BKN091 09/03 Q1003 RMK
  • 211450Z AUTO 21007KT 9999NDV FEW063 BKN090 10/03 Q1003 RMK
  • 211420Z AUTO 21008KT 9999NDV FEW061 BKN100 10/03 Q1003 RMK
  • 211350Z AUTO 21009KT 9999NDV FEW056 BKN075 10/03 Q1003 RMK

Expired Forecast.



MET'MAP, your aeronautical weather chart ! - Copyright ORBIFLY December 2007 - Disclaimer

ORBIFLY MET'MAP TEAM :

Programming & Development : Alexandra Zaïnal
Concept & original design : Baudouin d'Aumeries
Assistance for programming : Marc-Olivier Méhu
Technical & hardware support : Manuel Goepfert

Contact : metmap@orbifly.com




SOURCES & CREDITS :

   NOAA